createdAt,value
2022-11-29T00:01:15.536Z,-4.36
2022-11-29T00:03:42.315Z,-4.37
2022-11-29T00:06:12.086Z,-4.38
2022-11-29T00:08:39.342Z,-4.41
2022-11-29T00:11:20.850Z,-4.43
2022-11-29T00:13:47.234Z,-4.41
2022-11-29T00:16:13.787Z,-4.42
2022-11-29T00:18:40.279Z,-4.43
2022-11-29T00:21:08.435Z,-4.42
2022-11-29T00:23:36.123Z,-4.41
2022-11-29T00:26:05.167Z,-4.46
2022-11-29T00:28:31.753Z,-4.52
2022-11-29T00:30:58.379Z,-4.53
2022-11-29T00:33:25.044Z,-4.53
2022-11-29T00:35:51.694Z,-4.54
2022-11-29T00:38:18.126Z,-4.53
2022-11-29T00:40:44.686Z,-4.50
2022-11-29T00:43:11.221Z,-4.48
2022-11-29T00:45:37.699Z,-4.47
2022-11-29T00:48:04.855Z,-4.49
2022-11-29T00:50:31.349Z,-4.52
2022-11-29T00:52:57.784Z,-4.54
2022-11-29T00:55:24.196Z,-4.58
2022-11-29T00:57:50.769Z,-4.61
2022-11-29T01:00:17.821Z,-4.62
2022-11-29T01:02:44.407Z,-4.62
2022-11-29T01:05:10.909Z,-4.63
2022-11-29T01:07:37.367Z,-4.64
2022-11-29T01:10:04.549Z,-4.64
2022-11-29T01:12:31.142Z,-4.63
2022-11-29T01:14:58.812Z,-4.66
2022-11-29T01:17:25.354Z,-4.72
2022-11-29T01:19:51.894Z,-4.76
2022-11-29T01:22:18.300Z,-4.78
2022-11-29T01:24:45.090Z,-4.79
2022-11-29T01:27:11.630Z,-4.80
2022-11-29T01:29:38.903Z,-4.78
2022-11-29T01:32:05.525Z,-4.78
2022-11-29T01:34:31.920Z,-4.79
2022-11-29T01:36:58.336Z,-4.78
2022-11-29T01:39:24.873Z,-4.78
2022-11-29T01:41:51.384Z,-4.81
2022-11-29T01:44:17.757Z,-4.84
2022-11-29T01:46:46.509Z,-4.87
2022-11-29T01:49:23.711Z,-4.89
2022-11-29T01:52:04.819Z,-4.89
2022-11-29T01:54:34.594Z,-4.88
2022-11-29T01:57:05.549Z,-4.87
2022-11-29T01:59:32.811Z,-4.87
2022-11-29T02:02:11.074Z,-4.85
2022-11-29T02:04:46.203Z,-4.84
2022-11-29T02:07:13.513Z,-4.84
2022-11-29T02:09:39.943Z,-4.81
2022-11-29T02:12:24.857Z,-4.79
2022-11-29T02:15:15.430Z,-4.82
2022-11-29T02:18:03.165Z,-4.87
2022-11-29T02:20:47.830Z,-4.88
2022-11-29T02:23:34.196Z,-4.93
2022-11-29T02:26:18.673Z,-4.98
2022-11-29T02:28:59.004Z,-5.04
2022-11-29T02:32:04.830Z,-5.05
2022-11-29T02:35:18.680Z,-5.11
2022-11-29T02:37:57.308Z,-5.13
2022-11-29T02:40:54.692Z,-5.12
2022-11-29T02:43:40.226Z,-5.14
2022-11-29T02:46:29.813Z,-5.16
2022-11-29T02:49:22.391Z,-5.23
2022-11-29T02:52:06.268Z,-5.25
2022-11-29T02:54:46.601Z,-5.26
2022-11-29T02:57:32.905Z,-5.33
2022-11-29T03:00:26.129Z,-5.36
2022-11-29T03:02:52.567Z,-5.38
2022-11-29T03:05:48.035Z,-5.36
2022-11-29T03:08:29.921Z,-5.37
2022-11-29T03:11:08.755Z,-5.34
2022-11-29T03:14:13.184Z,-5.30
2022-11-29T03:16:51.407Z,-5.27
2022-11-29T03:19:29.723Z,-5.28
2022-11-29T03:22:06.032Z,-5.27
2022-11-29T03:25:12.770Z,-5.28
2022-11-29T03:28:15.256Z,-5.33
2022-11-29T03:30:57.410Z,-5.34
2022-11-29T03:33:32.919Z,-5.36
2022-11-29T03:36:23.414Z,-5.39
2022-11-29T03:38:55.014Z,-5.41
2022-11-29T03:41:21.313Z,-5.44
2022-11-29T03:43:50.748Z,-5.46
2022-11-29T03:46:35.025Z,-5.49
2022-11-29T03:49:09.627Z,-5.50
2022-11-29T03:51:48.470Z,-5.54
2022-11-29T03:54:25.448Z,-5.58
2022-11-29T03:56:52.241Z,-5.62
2022-11-29T03:59:37.520Z,-5.65
2022-11-29T04:02:48.572Z,-5.69
2022-11-29T04:05:33.935Z,-5.73
2022-11-29T04:08:24.936Z,-5.79
2022-11-29T04:11:08.055Z,-5.82
2022-11-29T04:14:19.759Z,-5.81
2022-11-29T04:17:14.868Z,-5.78
2022-11-29T04:20:00.252Z,-5.73
2022-11-29T04:23:04.202Z,-5.67
2022-11-29T04:26:07.883Z,-5.62
2022-11-29T04:29:12.074Z,-5.59
2022-11-29T04:32:16.025Z,-5.62
2022-11-29T04:35:09.500Z,-5.65
2022-11-29T04:37:57.541Z,-5.66
2022-11-29T04:40:49.824Z,-5.68
2022-11-29T04:43:42.044Z,-5.68
2022-11-29T04:46:17.180Z,-5.66
2022-11-29T04:49:39.832Z,-5.66
2022-11-29T04:52:06.256Z,-5.63
2022-11-29T04:54:42.607Z,-5.62
2022-11-29T04:57:24.070Z,-5.59
2022-11-29T05:00:05.422Z,-5.58
2022-11-29T05:02:41.023Z,-5.58
2022-11-29T05:05:28.590Z,-5.58
2022-11-29T05:08:42.467Z,-5.61
2022-11-29T05:11:23.403Z,-5.62
2022-11-29T05:14:08.716Z,-5.65
2022-11-29T05:16:53.659Z,-5.69
2022-11-29T05:19:39.768Z,-5.73
2022-11-29T05:22:15.309Z,-5.73
2022-11-29T05:25:00.817Z,-5.70
2022-11-29T05:27:52.222Z,-5.69
2022-11-29T05:30:21.955Z,-5.71
2022-11-29T05:33:42.669Z,-5.75
2022-11-29T05:36:36.461Z,-5.79
2022-11-29T05:39:24.610Z,-5.82
2022-11-29T05:42:26.350Z,-5.88
2022-11-29T05:45:37.458Z,-5.91
2022-11-29T05:48:27.039Z,-5.91
2022-11-29T05:51:19.900Z,-5.90
2022-11-29T05:54:29.925Z,-5.94
2022-11-29T05:57:28.941Z,-6.02
2022-11-29T05:59:57.983Z,-5.98
2022-11-29T06:02:27.666Z,-5.94
2022-11-29T06:04:57.063Z,-5.93
2022-11-29T06:07:36.250Z,-5.89
2022-11-29T06:10:05.622Z,-5.89
2022-11-29T06:12:34.898Z,-5.85
2022-11-29T06:15:38.941Z,-5.80
2022-11-29T06:18:27.428Z,-5.76
2022-11-29T06:21:23.527Z,-5.78
2022-11-29T06:23:59.520Z,-5.79
2022-11-29T06:26:40.161Z,-5.78
2022-11-29T06:29:20.320Z,-5.74
2022-11-29T06:31:52.492Z,-5.71
2022-11-29T06:34:37.746Z,-5.63
2022-11-29T06:37:23.409Z,-5.47
2022-11-29T06:39:50.723Z,-5.26
2022-11-29T06:42:17.451Z,-5.07
2022-11-29T06:44:44.539Z,-4.85
2022-11-29T06:47:38.609Z,-4.61
2022-11-29T06:50:20.119Z,-4.30
2022-11-29T06:52:51.552Z,-4.14
2022-11-29T06:55:27.553Z,-4.11
2022-11-29T06:58:06.502Z,-4.12
2022-11-29T07:01:03.679Z,-4.15
2022-11-29T07:03:56.267Z,-4.13
2022-11-29T07:06:25.987Z,-4.07
2022-11-29T07:08:59.690Z,-3.99
2022-11-29T07:11:27.479Z,-3.91
2022-11-29T07:13:54.816Z,-3.87
2022-11-29T07:16:28.306Z,-3.81
2022-11-29T07:19:21.992Z,-3.73
2022-11-29T07:21:59.432Z,-3.63
2022-11-29T07:24:44.355Z,-3.53
2022-11-29T07:27:20.123Z,-3.44
2022-11-29T07:30:14.712Z,-3.38
2022-11-29T07:32:52.040Z,-3.29
2022-11-29T07:35:43.225Z,-3.24
2022-11-29T07:38:33.829Z,-3.14
2022-11-29T07:41:10.302Z,-3.03
2022-11-29T07:44:08.791Z,-2.90
2022-11-29T07:46:35.245Z,-2.71
2022-11-29T07:49:01.769Z,-2.55
2022-11-29T07:51:28.422Z,-2.41
2022-11-29T07:53:54.972Z,-2.32
2022-11-29T07:56:21.494Z,-2.26
2022-11-29T07:58:48.193Z,-2.18
2022-11-29T08:01:14.668Z,-2.08
2022-11-29T08:03:42.549Z,-1.95
2022-11-29T08:06:09.085Z,-1.84
2022-11-29T08:08:39.256Z,-1.76
2022-11-29T08:11:12.337Z,-1.64
2022-11-29T08:13:38.759Z,-1.50
2022-11-29T08:16:05.764Z,-1.33
2022-11-29T08:18:32.329Z,-1.11
2022-11-29T08:20:58.720Z,-0.77
2022-11-29T08:23:25.098Z,-0.32
2022-11-29T08:25:59.217Z,0.15
2022-11-29T08:28:25.758Z,0.64
2022-11-29T08:31:00.295Z,0.98
2022-11-29T08:33:27.032Z,1.20
2022-11-29T08:35:53.586Z,1.42
2022-11-29T08:38:20.195Z,1.64
2022-11-29T08:40:46.591Z,1.99
2022-11-29T08:43:13.043Z,2.14
2022-11-29T08:45:39.522Z,2.17
2022-11-29T08:48:06.500Z,2.19
2022-11-29T08:50:32.955Z,2.26
2022-11-29T08:52:59.380Z,2.51
2022-11-29T08:55:28.831Z,2.81
2022-11-29T08:58:01.757Z,2.85
2022-11-29T09:00:28.283Z,2.96
2022-11-29T09:02:54.949Z,3.17
2022-11-29T09:05:21.441Z,3.22
2022-11-29T09:07:47.952Z,3.27
2022-11-29T09:10:14.438Z,3.31
2022-11-29T09:12:41.199Z,3.51
2022-11-29T09:15:11.748Z,3.54
2022-11-29T09:17:38.159Z,3.62
2022-11-29T09:20:06.110Z,3.78
2022-11-29T09:22:32.583Z,3.77
2022-11-29T09:24:59.024Z,3.85
2022-11-29T09:27:25.645Z,4.07
2022-11-29T09:29:52.084Z,4.27
2022-11-29T09:32:18.493Z,4.51
2022-11-29T09:34:45.603Z,4.64
2022-11-29T09:37:12.314Z,4.72
2022-11-29T09:39:38.709Z,4.77
2022-11-29T09:42:56.114Z,4.84
2022-11-29T09:45:37.321Z,4.79
2022-11-29T09:48:25.394Z,4.90
2022-11-29T09:51:24.997Z,4.92
2022-11-29T09:54:24.575Z,4.85
2022-11-29T09:56:54.475Z,4.65
2022-11-29T09:59:29.044Z,4.60
2022-11-29T10:02:04.514Z,4.63
2022-11-29T10:04:38.568Z,4.59
2022-11-29T10:07:33.943Z,4.67
2022-11-29T10:10:27.201Z,4.74
2022-11-29T10:13:00.307Z,4.88
2022-11-29T10:15:38.901Z,4.81
2022-11-29T10:18:16.862Z,4.44
2022-11-29T10:20:48.925Z,4.08
2022-11-29T10:23:36.768Z,3.87
2022-11-29T10:26:05.059Z,3.82
2022-11-29T10:28:33.611Z,3.87
2022-11-29T10:31:24.362Z,3.87
2022-11-29T10:33:51.010Z,3.87
2022-11-29T10:36:23.455Z,3.86
2022-11-29T10:38:52.865Z,3.82
2022-11-29T10:41:22.784Z,3.85
2022-11-29T10:43:51.402Z,3.91
2022-11-29T10:46:37.084Z,3.89
2022-11-29T10:49:06.977Z,3.95
2022-11-29T10:51:34.047Z,4.04
2022-11-29T10:54:23.228Z,4.10
2022-11-29T10:56:50.823Z,4.15
2022-11-29T10:59:29.151Z,4.15
2022-11-29T11:01:57.338Z,4.11
2022-11-29T11:04:35.534Z,4.10
2022-11-29T11:07:04.800Z,4.18
2022-11-29T11:09:40.186Z,4.14
2022-11-29T11:12:18.171Z,4.04
2022-11-29T11:14:45.815Z,4.03
2022-11-29T11:17:24.248Z,3.99
2022-11-29T11:20:01.045Z,3.98
2022-11-29T11:22:29.244Z,3.90
2022-11-29T11:25:04.970Z,3.84
2022-11-29T11:27:39.001Z,3.89
2022-11-29T11:30:18.320Z,3.86
2022-11-29T11:33:22.333Z,3.84
2022-11-29T11:36:20.648Z,3.87
2022-11-29T11:39:12.363Z,3.96
2022-11-29T11:41:42.274Z,4.09
2022-11-29T11:44:50.463Z,4.09
2022-11-29T11:47:21.954Z,4.10
2022-11-29T11:49:48.265Z,4.16
2022-11-29T11:52:22.047Z,4.26
2022-11-29T11:54:53.596Z,4.38
2022-11-29T11:57:22.544Z,4.49
2022-11-29T11:59:51.120Z,4.59
2022-11-29T12:02:38.009Z,4.66
2022-11-29T12:05:10.449Z,4.70
2022-11-29T12:08:13.661Z,4.67
2022-11-29T12:10:41.187Z,4.58
2022-11-29T12:13:17.759Z,4.61
2022-11-29T12:15:47.220Z,4.62
2022-11-29T12:18:26.925Z,4.60
2022-11-29T12:21:15.970Z,4.70
2022-11-29T12:24:02.396Z,4.81
2022-11-29T12:26:56.466Z,4.91
2022-11-29T12:29:19.961Z,4.95
2022-11-29T12:32:14.532Z,5.03
2022-11-29T12:34:49.638Z,5.07
2022-11-29T12:37:24.594Z,5.01
2022-11-29T12:39:59.976Z,4.91
2022-11-29T12:42:41.051Z,4.85
2022-11-29T12:45:59.089Z,4.82
2022-11-29T12:48:49.779Z,4.85
2022-11-29T12:51:29.723Z,4.92
2022-11-29T12:54:07.706Z,4.94
2022-11-29T12:56:43.118Z,4.90
2022-11-29T12:59:12.272Z,4.90
2022-11-29T13:01:41.457Z,4.94
2022-11-29T13:04:56.496Z,4.94
2022-11-29T13:07:47.582Z,4.93
2022-11-29T13:10:39.177Z,4.88
2022-11-29T13:13:24.568Z,4.83
2022-11-29T13:15:59.209Z,4.78
2022-11-29T13:18:38.184Z,4.75
2022-11-29T13:21:21.472Z,4.74
2022-11-29T13:24:11.149Z,4.72
2022-11-29T13:26:41.834Z,4.72
2022-11-29T13:29:15.877Z,4.70
2022-11-29T13:31:44.168Z,4.68
2022-11-29T13:34:19.186Z,4.67
2022-11-29T13:37:15.396Z,4.66
2022-11-29T13:39:52.694Z,4.63
2022-11-29T13:43:00.950Z,4.61
2022-11-29T13:45:44.454Z,4.59
2022-11-29T13:48:29.121Z,-21.94
2022-11-29T13:51:19.100Z,4.51
2022-11-29T13:53:49.195Z,4.47
2022-11-29T13:56:32.564Z,4.42
2022-11-29T13:59:01.093Z,4.36
2022-11-29T14:01:28.590Z,4.30
2022-11-29T14:04:36.422Z,4.22
2022-11-29T14:07:12.573Z,4.13
2022-11-29T14:10:12.138Z,4.02
2022-11-29T14:12:50.879Z,3.90
2022-11-29T14:15:29.313Z,3.78
2022-11-29T14:17:59.884Z,3.65
2022-11-29T14:20:26.323Z,3.54
2022-11-29T14:23:04.820Z,3.42
2022-11-29T14:26:01.385Z,3.32
2022-11-29T14:28:33.087Z,3.23
2022-11-29T14:31:04.079Z,3.12
2022-11-29T14:34:14.807Z,2.97
2022-11-29T14:36:44.205Z,2.77
2022-11-29T14:39:19.672Z,2.55
2022-11-29T14:41:56.314Z,2.33
2022-11-29T14:44:26.459Z,2.12
2022-11-29T14:47:05.286Z,1.94
2022-11-29T14:49:39.550Z,1.79
2022-11-29T14:52:15.137Z,1.61
2022-11-29T14:55:04.491Z,1.44
2022-11-29T14:57:49.382Z,1.29
2022-11-29T15:00:17.045Z,1.15
2022-11-29T15:03:08.273Z,1.03
2022-11-29T15:05:39.809Z,0.88
2022-11-29T15:08:27.583Z,0.75
2022-11-29T15:11:02.640Z,0.58
2022-11-29T15:13:32.077Z,0.45
2022-11-29T15:16:16.005Z,0.35
2022-11-29T15:18:51.386Z,0.26
2022-11-29T15:21:49.794Z,0.13
2022-11-29T15:24:17.477Z,-0.02
2022-11-29T15:27:00.384Z,-0.13
2022-11-29T15:29:28.994Z,-0.25
2022-11-29T15:32:03.522Z,-0.37
2022-11-29T15:34:43.493Z,-0.48
2022-11-29T15:37:23.630Z,-0.59
2022-11-29T15:40:04.779Z,-0.66
2022-11-29T15:42:44.339Z,-0.72
2022-11-29T15:45:22.875Z,-0.84
2022-11-29T15:47:49.610Z,-0.96
2022-11-29T15:50:29.524Z,-1.07
2022-11-29T15:53:03.206Z,-1.10
2022-11-29T15:55:30.490Z,-1.17
2022-11-29T15:58:03.892Z,-1.29
2022-11-29T16:00:33.713Z,-1.37
2022-11-29T16:03:02.482Z,-1.45
2022-11-29T16:05:35.061Z,-1.52
2022-11-29T16:08:05.964Z,-1.57
2022-11-29T16:10:41.018Z,-1.65
2022-11-29T16:13:29.391Z,-1.78
2022-11-29T16:16:06.928Z,-1.84
2022-11-29T16:18:33.787Z,-1.87
2022-11-29T16:21:02.295Z,-1.86
2022-11-29T16:23:41.202Z,-1.85
2022-11-29T16:26:18.273Z,-1.86
2022-11-29T16:28:47.688Z,-1.91
2022-11-29T16:31:23.183Z,-1.93
2022-11-29T16:33:51.927Z,-1.97
2022-11-29T16:36:27.906Z,-1.95
2022-11-29T16:39:00.103Z,-1.95
2022-11-29T16:41:37.258Z,-2.00
2022-11-29T16:44:06.198Z,-2.08
2022-11-29T16:46:35.548Z,-2.15
2022-11-29T16:49:23.907Z,-2.20
2022-11-29T16:51:52.238Z,-2.26
2022-11-29T16:54:22.848Z,-2.33
2022-11-29T16:56:53.979Z,-2.40
2022-11-29T16:59:27.526Z,-2.38
2022-11-29T17:01:56.727Z,-2.27
2022-11-29T17:04:24.339Z,-2.15
2022-11-29T17:06:53.455Z,-2.02
2022-11-29T17:09:29.501Z,-2.00
2022-11-29T17:11:57.187Z,-2.03
2022-11-29T17:14:23.712Z,-2.05
2022-11-29T17:16:50.472Z,-2.05
2022-11-29T17:19:18.114Z,-2.03
2022-11-29T17:21:44.977Z,-2.01
2022-11-29T17:24:13.757Z,-2.01
2022-11-29T17:26:40.891Z,-2.02
2022-11-29T17:29:07.300Z,-2.05
2022-11-29T17:31:33.924Z,-2.04
2022-11-29T17:34:00.635Z,-2.02
2022-11-29T17:36:27.643Z,-2.05
2022-11-29T17:38:54.408Z,-2.09
2022-11-29T17:41:24.045Z,-2.11
2022-11-29T17:43:51.805Z,-2.15
2022-11-29T17:46:24.412Z,-2.20
2022-11-29T17:48:51.226Z,-2.19
2022-11-29T17:51:50.040Z,-2.17
2022-11-29T17:54:07.759Z,-2.14
2022-11-29T17:56:34.687Z,-2.12
2022-11-29T17:59:03.104Z,-2.08
2022-11-29T18:01:32.854Z,-2.05
2022-11-29T18:04:01.498Z,-2.00
2022-11-29T18:06:30.187Z,-1.95
2022-11-29T18:09:00.819Z,-1.89
2022-11-29T18:11:42.973Z,-1.83
2022-11-29T18:14:13.976Z,-1.77
2022-11-29T18:16:40.887Z,-1.74
2022-11-29T18:19:10.558Z,-1.68
2022-11-29T18:21:38.437Z,-1.63
2022-11-29T18:24:06.668Z,-1.60
2022-11-29T18:26:34.625Z,-1.55
2022-11-29T18:29:01.289Z,-1.52
2022-11-29T18:31:30.409Z,-1.49
2022-11-29T18:34:00.343Z,-1.47
2022-11-29T18:36:32.596Z,-1.47
2022-11-29T18:39:01.622Z,-1.45
2022-11-29T18:41:29.902Z,-1.45
2022-11-29T18:44:02.751Z,-1.44
2022-11-29T18:46:30.257Z,-1.43
2022-11-29T18:48:56.673Z,-1.41
2022-11-29T18:51:23.123Z,-1.40
2022-11-29T18:53:49.498Z,-1.40
2022-11-29T18:56:18.838Z,-1.41
2022-11-29T18:58:47.221Z,-1.41
2022-11-29T19:01:16.051Z,-1.40
2022-11-29T19:03:45.525Z,-1.40
2022-11-29T19:06:15.139Z,-1.45
2022-11-29T19:08:42.703Z,-1.52
2022-11-29T19:11:14.514Z,-1.56
2022-11-29T19:13:42.026Z,-1.60
2022-11-29T19:16:13.159Z,-1.65
2022-11-29T19:18:40.132Z,-1.70
2022-11-29T19:21:10.241Z,-1.79
2022-11-29T19:23:36.691Z,-1.90
2022-11-29T19:26:08.774Z,-2.02
2022-11-29T19:28:36.777Z,-2.12
2022-11-29T19:31:03.889Z,-2.20
2022-11-29T19:33:30.618Z,-2.25
2022-11-29T19:35:57.360Z,-2.27
2022-11-29T19:38:23.794Z,-2.33
2022-11-29T19:40:50.334Z,-2.40
2022-11-29T19:43:16.801Z,-2.46
2022-11-29T19:45:43.309Z,-2.53
2022-11-29T19:48:09.847Z,-2.58
2022-11-29T19:50:36.357Z,-2.62
2022-11-29T19:53:02.792Z,-2.64
2022-11-29T19:55:31.008Z,-2.66
2022-11-29T19:57:57.413Z,-2.66
2022-11-29T20:00:24.085Z,-2.64
2022-11-29T20:02:50.695Z,-2.63
2022-11-29T20:05:17.491Z,-2.64
2022-11-29T20:07:44.057Z,-2.63
2022-11-29T20:10:11.184Z,-2.62
2022-11-29T20:12:37.718Z,-2.61
2022-11-29T20:15:04.863Z,-2.57
2022-11-29T20:17:31.409Z,-2.55
2022-11-29T20:19:58.009Z,-2.51
2022-11-29T20:22:24.689Z,-2.48
2022-11-29T20:24:51.126Z,-2.45
2022-11-29T20:27:17.561Z,-2.41
2022-11-29T20:29:44.312Z,-2.38
2022-11-29T20:32:11.357Z,-2.33
2022-11-29T20:34:38.086Z,-2.26
2022-11-29T20:37:23.683Z,-2.22
2022-11-29T20:39:57.071Z,-2.19
2022-11-29T20:42:29.611Z,-2.16
2022-11-29T20:45:05.451Z,-2.15
2022-11-29T20:47:40.869Z,-2.11
2022-11-29T20:50:08.461Z,-2.06
2022-11-29T20:52:37.736Z,-2.03
2022-11-29T20:55:05.484Z,-1.99
2022-11-29T20:57:31.927Z,-1.93
2022-11-29T20:59:58.438Z,-1.90
2022-11-29T21:02:25.022Z,-1.87
2022-11-29T21:04:51.634Z,-1.85
2022-11-29T21:07:18.173Z,-1.85
2022-11-29T21:09:45.354Z,-1.82
2022-11-29T21:12:12.845Z,-1.80
2022-11-29T21:14:39.655Z,-1.79
2022-11-29T21:17:06.713Z,-1.82
2022-11-29T21:19:33.570Z,-1.81
2022-11-29T21:22:21.910Z,-1.78
2022-11-29T21:25:00.633Z,-1.75
2022-11-29T21:27:31.785Z,-1.75
2022-11-29T21:29:58.675Z,-1.74
2022-11-29T21:32:27.324Z,-1.74
2022-11-29T21:34:53.964Z,-1.73
2022-11-29T21:37:25.161Z,-1.70
2022-11-29T21:39:53.271Z,-1.70
2022-11-29T21:42:20.138Z,-1.74
2022-11-29T21:44:47.343Z,-1.77
2022-11-29T21:47:15.475Z,-1.79
2022-11-29T21:49:42.023Z,-1.80
2022-11-29T21:52:08.452Z,-1.82
2022-11-29T21:54:34.849Z,-1.87
2022-11-29T21:57:01.428Z,-1.90
2022-11-29T21:59:27.851Z,-1.95
2022-11-29T22:01:54.709Z,-2.00
2022-11-29T22:04:21.458Z,-2.05
2022-11-29T22:06:47.996Z,-2.07
2022-11-29T22:09:14.627Z,-2.03
2022-11-29T22:11:41.176Z,-1.98
2022-11-29T22:14:10.410Z,-1.94
2022-11-29T22:16:36.841Z,-1.89
2022-11-29T22:19:03.325Z,-1.88
2022-11-29T22:21:30.003Z,-1.88
2022-11-29T22:23:56.546Z,-1.89
2022-11-29T22:26:23.287Z,-1.89
2022-11-29T22:28:49.856Z,-1.87
2022-11-29T22:31:16.393Z,-1.84
2022-11-29T22:33:43.055Z,-1.80
2022-11-29T22:36:12.915Z,-1.79
2022-11-29T22:38:40.202Z,-1.82
2022-11-29T22:41:10.086Z,-1.84
2022-11-29T22:43:37.683Z,-1.85
2022-11-29T22:46:09.021Z,-1.86
2022-11-29T22:48:38.912Z,-1.90
2022-11-29T22:51:11.528Z,-1.96
2022-11-29T22:53:40.307Z,-1.97
2022-11-29T22:56:09.123Z,-1.96
2022-11-29T22:58:36.257Z,-1.95
2022-11-29T23:01:26.677Z,-1.94
2022-11-29T23:03:55.588Z,-1.90
2022-11-29T23:06:25.332Z,-1.87
2022-11-29T23:08:54.257Z,-1.87
2022-11-29T23:11:25.132Z,-1.85
2022-11-29T23:13:51.984Z,-1.85
2022-11-29T23:16:21.766Z,-1.88
2022-11-29T23:18:48.542Z,-1.90
2022-11-29T23:21:22.090Z,-1.94
2022-11-29T23:23:54.494Z,-1.92
2022-11-29T23:26:47.592Z,-1.93
2022-11-29T23:29:18.061Z,-1.96
2022-11-29T23:31:45.696Z,-1.97
2022-11-29T23:34:13.256Z,-1.95
2022-11-29T23:36:39.799Z,-1.95
2022-11-29T23:39:07.170Z,-1.93
2022-11-29T23:41:35.594Z,-1.95
2022-11-29T23:44:05.502Z,-1.97
2022-11-29T23:46:32.211Z,-1.99
2022-11-29T23:48:58.735Z,-1.98
2022-11-29T23:51:25.194Z,-1.95
2022-11-29T23:53:53.375Z,-1.96
2022-11-29T23:56:21.451Z,-1.99
2022-11-29T23:58:47.995Z,-2.02
